sensor_id;sensor_type;location;lat;lon;timestamp;temperature;humidity
37646;DHT22;23489;49.600;6.138;2023-07-13T00:01:31;17.30;99.60
37646;DHT22;23489;49.600;6.138;2023-07-13T00:03:57;17.30;99.30
37646;DHT22;23489;49.600;6.138;2023-07-13T00:06:23;17.30;99.10
37646;DHT22;23489;49.600;6.138;2023-07-13T00:08:49;17.40;99.00
37646;DHT22;23489;49.600;6.138;2023-07-13T00:11:16;17.40;99.10
37646;DHT22;23489;49.600;6.138;2023-07-13T00:13:42;17.40;99.10
37646;DHT22;23489;49.600;6.138;2023-07-13T00:16:09;17.40;99.20
37646;DHT22;23489;49.600;6.138;2023-07-13T00:18:35;17.50;99.10
37646;DHT22;23489;49.600;6.138;2023-07-13T00:21:02;17.40;99.20
37646;DHT22;23489;49.600;6.138;2023-07-13T00:23:39;17.50;99.90
37646;DHT22;23489;49.600;6.138;2023-07-13T00:26:07;17.50;99.90
37646;DHT22;23489;49.600;6.138;2023-07-13T00:28:33;17.40;99.90
37646;DHT22;23489;49.600;6.138;2023-07-13T00:31:00;17.40;99.90
37646;DHT22;23489;49.600;6.138;2023-07-13T00:33:27;17.40;99.90
37646;DHT22;23489;49.600;6.138;2023-07-13T00:35:54;17.40;99.90
37646;DHT22;23489;49.600;6.138;2023-07-13T00:38:20;17.40;99.90
37646;DHT22;23489;49.600;6.138;2023-07-13T00:40:46;17.40;99.90
37646;DHT22;23489;49.600;6.138;2023-07-13T00:43:19;17.50;99.90
37646;DHT22;23489;49.600;6.138;2023-07-13T00:48:14;17.40;99.90
37646;DHT22;23489;49.600;6.138;2023-07-13T00:50:41;17.20;99.90
37646;DHT22;23489;49.600;6.138;2023-07-13T00:53:07;17.10;99.90
37646;DHT22;23489;49.600;6.138;2023-07-13T00:55:34;17.10;99.90
37646;DHT22;23489;49.600;6.138;2023-07-13T00:58:01;17.10;99.90
37646;DHT22;23489;49.600;6.138;2023-07-13T01:00:29;17.10;99.90
37646;DHT22;23489;49.600;6.138;2023-07-13T01:02:55;17.20;99.90
37646;DHT22;23489;49.600;6.138;2023-07-13T01:05:24;17.20;99.90
37646;DHT22;23489;49.600;6.138;2023-07-13T01:07:51;17.20;99.90
37646;DHT22;23489;49.600;6.138;2023-07-13T01:10:21;17.20;99.90
37646;DHT22;23489;49.600;6.138;2023-07-13T01:12:48;17.10;99.90
37646;DHT22;23489;49.600;6.138;2023-07-13T01:15:52;17.10;99.90
37646;DHT22;23489;49.600;6.138;2023-07-13T01:18:25;17.00;99.90
37646;DHT22;23489;49.600;6.138;2023-07-13T01:20:56;17.00;99.90
37646;DHT22;23489;49.600;6.138;2023-07-13T01:23:22;16.90;99.90
37646;DHT22;23489;49.600;6.138;2023-07-13T01:25:48;17.00;99.90
37646;DHT22;23489;49.600;6.138;2023-07-13T01:28:14;16.90;99.90
37646;DHT22;23489;49.600;6.138;2023-07-13T01:30:43;16.90;99.90
37646;DHT22;23489;49.600;6.138;2023-07-13T01:33:14;16.90;99.90
37646;DHT22;23489;49.600;6.138;2023-07-13T01:35:42;16.90;99.90
37646;DHT22;23489;49.600;6.138;2023-07-13T01:38:08;17.00;99.90
37646;DHT22;23489;49.600;6.138;2023-07-13T01:40:36;17.10;99.90
37646;DHT22;23489;49.600;6.138;2023-07-13T01:43:02;17.00;99.90
37646;DHT22;23489;49.600;6.138;2023-07-13T01:45:28;17.00;99.90
37646;DHT22;23489;49.600;6.138;2023-07-13T01:47:54;17.00;99.90
37646;DHT22;23489;49.600;6.138;2023-07-13T01:50:20;17.00;99.90
37646;DHT22;23489;49.600;6.138;2023-07-13T01:52:45;17.00;99.90
37646;DHT22;23489;49.600;6.138;2023-07-13T01:55:11;17.00;99.90
37646;DHT22;23489;49.600;6.138;2023-07-13T01:57:37;17.00;99.90
37646;DHT22;23489;49.600;6.138;2023-07-13T02:00:08;17.10;99.90
37646;DHT22;23489;49.600;6.138;2023-07-13T02:02:46;17.00;99.90
37646;DHT22;23489;49.600;6.138;2023-07-13T02:05:12;17.00;99.90
37646;DHT22;23489;49.600;6.138;2023-07-13T02:07:39;17.10;99.90
37646;DHT22;23489;49.600;6.138;2023-07-13T02:10:06;17.10;99.90
37646;DHT22;23489;49.600;6.138;2023-07-13T02:12:32;17.10;99.90
37646;DHT22;23489;49.600;6.138;2023-07-13T02:14:58;17.10;99.90
37646;DHT22;23489;49.600;6.138;2023-07-13T02:17:24;17.10;99.90
37646;DHT22;23489;49.600;6.138;2023-07-13T02:19:49;17.10;99.90
37646;DHT22;23489;49.600;6.138;2023-07-13T02:22:15;17.10;99.90
37646;DHT22;23489;49.600;6.138;2023-07-13T02:24:41;17.10;99.90
37646;DHT22;23489;49.600;6.138;2023-07-13T02:27:06;17.10;99.90
37646;DHT22;23489;49.600;6.138;2023-07-13T02:29:32;17.10;99.90
37646;DHT22;23489;49.600;6.138;2023-07-13T02:31:57;17.20;99.90
37646;DHT22;23489;49.600;6.138;2023-07-13T02:34:23;17.10;99.90
37646;DHT22;23489;49.600;6.138;2023-07-13T02:36:49;17.10;99.90
37646;DHT22;23489;49.600;6.138;2023-07-13T02:39:14;17.00;99.90
37646;DHT22;23489;49.600;6.138;2023-07-13T02:41:41;17.00;99.90
37646;DHT22;23489;49.600;6.138;2023-07-13T02:44:07;16.90;99.90
37646;DHT22;23489;49.600;6.138;2023-07-13T02:46:36;16.90;99.90
37646;DHT22;23489;49.600;6.138;2023-07-13T02:49:02;16.80;99.90
37646;DHT22;23489;49.600;6.138;2023-07-13T02:51:28;16.80;99.90
37646;DHT22;23489;49.600;6.138;2023-07-13T02:53:54;16.80;99.90
37646;DHT22;23489;49.600;6.138;2023-07-13T02:56:23;16.80;99.90
37646;DHT22;23489;49.600;6.138;2023-07-13T02:58:49;16.70;99.90
37646;DHT22;23489;49.600;6.138;2023-07-13T03:01:14;16.50;99.90
37646;DHT22;23489;49.600;6.138;2023-07-13T03:03:48;16.40;99.90
37646;DHT22;23489;49.600;6.138;2023-07-13T03:06:15;16.40;99.90
37646;DHT22;23489;49.600;6.138;2023-07-13T03:08:47;16.40;99.90
37646;DHT22;23489;49.600;6.138;2023-07-13T03:11:17;16.40;99.90
37646;DHT22;23489;49.600;6.138;2023-07-13T03:13:45;16.50;99.90
37646;DHT22;23489;49.600;6.138;2023-07-13T03:16:12;16.50;99.90
37646;DHT22;23489;49.600;6.138;2023-07-13T03:18:38;16.40;99.90
37646;DHT22;23489;49.600;6.138;2023-07-13T03:21:07;16.40;99.90
37646;DHT22;23489;49.600;6.138;2023-07-13T03:23:32;16.40;99.90
37646;DHT22;23489;49.600;6.138;2023-07-13T03:28:32;16.30;99.90
37646;DHT22;23489;49.600;6.138;2023-07-13T03:31:07;16.30;99.90
37646;DHT22;23489;49.600;6.138;2023-07-13T03:33:33;16.20;99.90
37646;DHT22;23489;49.600;6.138;2023-07-13T03:35:59;16.20;99.90
37646;DHT22;23489;49.600;6.138;2023-07-13T03:38:25;16.20;99.90
37646;DHT22;23489;49.600;6.138;2023-07-13T03:40:52;16.10;99.90
37646;DHT22;23489;49.600;6.138;2023-07-13T03:43:17;16.20;99.90
37646;DHT22;23489;49.600;6.138;2023-07-13T03:45:43;16.20;99.90
37646;DHT22;23489;49.600;6.138;2023-07-13T03:48:09;16.10;99.90
37646;DHT22;23489;49.600;6.138;2023-07-13T03:50:35;16.10;99.90
37646;DHT22;23489;49.600;6.138;2023-07-13T03:53:02;16.10;99.90
37646;DHT22;23489;49.600;6.138;2023-07-13T03:55:28;16.10;99.90
37646;DHT22;23489;49.600;6.138;2023-07-13T03:57:59;16.10;99.90
37646;DHT22;23489;49.600;6.138;2023-07-13T04:00:25;16.20;99.90
37646;DHT22;23489;49.600;6.138;2023-07-13T04:02:52;16.20;99.90
37646;DHT22;23489;49.600;6.138;2023-07-13T04:05:18;16.20;99.90
37646;DHT22;23489;49.600;6.138;2023-07-13T04:07:45;16.20;99.90
37646;DHT22;23489;49.600;6.138;2023-07-13T04:10:10;16.30;99.90
37646;DHT22;23489;49.600;6.138;2023-07-13T04:12:36;16.40;99.90
37646;DHT22;23489;49.600;6.138;2023-07-13T04:15:03;16.50;99.90
37646;DHT22;23489;49.600;6.138;2023-07-13T04:17:28;16.50;99.90
37646;DHT22;23489;49.600;6.138;2023-07-13T04:19:54;16.50;99.90
37646;DHT22;23489;49.600;6.138;2023-07-13T04:22:19;16.50;99.90
37646;DHT22;23489;49.600;6.138;2023-07-13T04:24:45;16.60;99.90
37646;DHT22;23489;49.600;6.138;2023-07-13T04:27:10;16.60;99.90
37646;DHT22;23489;49.600;6.138;2023-07-13T04:29:36;16.70;99.90
37646;DHT22;23489;49.600;6.138;2023-07-13T04:32:01;16.70;99.90
37646;DHT22;23489;49.600;6.138;2023-07-13T04:34:27;16.60;99.90
37646;DHT22;23489;49.600;6.138;2023-07-13T04:36:52;16.60;99.90
37646;DHT22;23489;49.600;6.138;2023-07-13T04:39:18;16.50;99.90
37646;DHT22;23489;49.600;6.138;2023-07-13T04:41:43;16.60;99.90
37646;DHT22;23489;49.600;6.138;2023-07-13T04:44:09;16.60;99.90
37646;DHT22;23489;49.600;6.138;2023-07-13T04:46:34;16.70;99.90
37646;DHT22;23489;49.600;6.138;2023-07-13T04:49:00;16.60;99.90
37646;DHT22;23489;49.600;6.138;2023-07-13T04:51:26;16.60;99.90
37646;DHT22;23489;49.600;6.138;2023-07-13T04:53:52;16.60;99.90
37646;DHT22;23489;49.600;6.138;2023-07-13T04:56:17;16.70;99.90
37646;DHT22;23489;49.600;6.138;2023-07-13T04:58:45;16.80;99.90
37646;DHT22;23489;49.600;6.138;2023-07-13T05:01:10;16.70;99.90
37646;DHT22;23489;49.600;6.138;2023-07-13T05:03:36;16.80;99.90
37646;DHT22;23489;49.600;6.138;2023-07-13T05:06:03;16.80;99.90
37646;DHT22;23489;49.600;6.138;2023-07-13T05:08:29;16.80;99.90
37646;DHT22;23489;49.600;6.138;2023-07-13T05:10:54;16.70;99.90
37646;DHT22;23489;49.600;6.138;2023-07-13T05:13:20;16.90;99.90
37646;DHT22;23489;49.600;6.138;2023-07-13T05:15:46;16.90;99.90
37646;DHT22;23489;49.600;6.138;2023-07-13T05:18:12;17.10;99.90
37646;DHT22;23489;49.600;6.138;2023-07-13T05:20:37;17.10;99.90
37646;DHT22;23489;49.600;6.138;2023-07-13T05:23:03;17.50;99.90
37646;DHT22;23489;49.600;6.138;2023-07-13T05:25:29;17.70;99.90
37646;DHT22;23489;49.600;6.138;2023-07-13T05:27:54;17.70;99.90
37646;DHT22;23489;49.600;6.138;2023-07-13T05:30:20;17.80;99.90
37646;DHT22;23489;49.600;6.138;2023-07-13T05:32:45;17.90;99.90
37646;DHT22;23489;49.600;6.138;2023-07-13T05:35:11;18.10;99.90
37646;DHT22;23489;49.600;6.138;2023-07-13T05:37:37;18.10;99.90
37646;DHT22;23489;49.600;6.138;2023-07-13T05:40:02;18.20;99.90
37646;DHT22;23489;49.600;6.138;2023-07-13T05:42:29;18.10;99.90
37646;DHT22;23489;49.600;6.138;2023-07-13T05:44:56;18.00;99.90
37646;DHT22;23489;49.600;6.138;2023-07-13T05:47:22;17.90;99.90
37646;DHT22;23489;49.600;6.138;2023-07-13T05:49:47;17.80;99.90
37646;DHT22;23489;49.600;6.138;2023-07-13T05:52:13;17.70;99.90
37646;DHT22;23489;49.600;6.138;2023-07-13T05:54:38;18.00;99.90
37646;DHT22;23489;49.600;6.138;2023-07-13T05:57:04;18.20;99.90
37646;DHT22;23489;49.600;6.138;2023-07-13T05:59:29;18.30;99.90
37646;DHT22;23489;49.600;6.138;2023-07-13T06:01:55;18.30;99.90
37646;DHT22;23489;49.600;6.138;2023-07-13T06:04:20;18.30;99.90
37646;DHT22;23489;49.600;6.138;2023-07-13T06:06:57;18.10;99.90
37646;DHT22;23489;49.600;6.138;2023-07-13T06:10:08;18.30;99.90
37646;DHT22;23489;49.600;6.138;2023-07-13T06:12:33;18.70;99.90
37646;DHT22;23489;49.600;6.138;2023-07-13T06:14:59;18.90;99.90
37646;DHT22;23489;49.600;6.138;2023-07-13T06:17:25;19.00;99.90
37646;DHT22;23489;49.600;6.138;2023-07-13T06:19:50;19.20;99.90
37646;DHT22;23489;49.600;6.138;2023-07-13T06:22:16;19.70;99.90
37646;DHT22;23489;49.600;6.138;2023-07-13T06:24:41;20.50;99.10
37646;DHT22;23489;49.600;6.138;2023-07-13T06:27:07;21.90;97.60
37646;DHT22;23489;49.600;6.138;2023-07-13T06:29:32;22.80;95.50
37646;DHT22;23489;49.600;6.138;2023-07-13T06:31:58;23.10;93.90
37646;DHT22;23489;49.600;6.138;2023-07-13T06:34:24;22.90;95.20
37646;DHT22;23489;49.600;6.138;2023-07-13T06:39:15;23.80;93.40
37646;DHT22;23489;49.600;6.138;2023-07-13T06:41:40;26.20;90.20
37646;DHT22;23489;49.600;6.138;2023-07-13T06:44:09;27.80;84.20
37646;DHT22;23489;49.600;6.138;2023-07-13T06:46:35;27.80;82.90
37646;DHT22;23489;49.600;6.138;2023-07-13T06:49:00;27.40;81.90
37646;DHT22;23489;49.600;6.138;2023-07-13T06:51:26;26.10;83.30
37646;DHT22;23489;49.600;6.138;2023-07-13T06:53:51;25.90;83.40
37646;DHT22;23489;49.600;6.138;2023-07-13T06:56:17;26.30;82.30
37646;DHT22;23489;49.600;6.138;2023-07-13T06:58:42;25.00;84.70
37646;DHT22;23489;49.600;6.138;2023-07-13T07:01:08;25.80;83.10
37646;DHT22;23489;49.600;6.138;2023-07-13T07:03:33;26.80;80.00
37646;DHT22;23489;49.600;6.138;2023-07-13T07:06:00;27.80;77.90
37646;DHT22;23489;49.600;6.138;2023-07-13T07:08:25;29.60;74.20
37646;DHT22;23489;49.600;6.138;2023-07-13T07:10:51;31.00;70.60
37646;DHT22;23489;49.600;6.138;2023-07-13T07:13:19;29.90;69.70
37646;DHT22;23489;49.600;6.138;2023-07-13T07:15:45;29.50;69.50
37646;DHT22;23489;49.600;6.138;2023-07-13T07:18:10;27.70;72.90
37646;DHT22;23489;49.600;6.138;2023-07-13T07:20:36;26.50;75.30
37646;DHT22;23489;49.600;6.138;2023-07-13T07:23:01;27.60;74.00
37646;DHT22;23489;49.600;6.138;2023-07-13T07:25:27;29.40;71.80
37646;DHT22;23489;49.600;6.138;2023-07-13T07:27:57;29.80;68.20
37646;DHT22;23489;49.600;6.138;2023-07-13T07:30:22;27.40;71.20
37646;DHT22;23489;49.600;6.138;2023-07-13T07:32:48;26.50;73.50
37646;DHT22;23489;49.600;6.138;2023-07-13T07:35:13;26.70;73.60
37646;DHT22;23489;49.600;6.138;2023-07-13T07:37:39;27.50;72.20
37646;DHT22;23489;49.600;6.138;2023-07-13T07:40:05;27.10;72.20
37646;DHT22;23489;49.600;6.138;2023-07-13T07:42:31;27.20;71.80
37646;DHT22;23489;49.600;6.138;2023-07-13T07:44:56;27.70;68.50
37646;DHT22;23489;49.600;6.138;2023-07-13T07:47:21;27.50;67.20
37646;DHT22;23489;49.600;6.138;2023-07-13T07:49:48;27.80;67.80
37646;DHT22;23489;49.600;6.138;2023-07-13T07:52:14;28.10;66.50
37646;DHT22;23489;49.600;6.138;2023-07-13T07:54:39;28.30;66.40
37646;DHT22;23489;49.600;6.138;2023-07-13T07:57:05;27.70;67.60
37646;DHT22;23489;49.600;6.138;2023-07-13T07:59:30;26.80;69.40
37646;DHT22;23489;49.600;6.138;2023-07-13T08:01:56;27.20;68.20
37646;DHT22;23489;49.600;6.138;2023-07-13T08:04:21;26.80;69.00
37646;DHT22;23489;49.600;6.138;2023-07-13T08:06:47;27.20;69.90
37646;DHT22;23489;49.600;6.138;2023-07-13T08:09:12;27.00;69.30
37646;DHT22;23489;49.600;6.138;2023-07-13T08:11:38;28.60;68.20
37646;DHT22;23489;49.600;6.138;2023-07-13T08:14:04;29.20;66.10
37646;DHT22;23489;49.600;6.138;2023-07-13T08:16:29;29.10;66.20
37646;DHT22;23489;49.600;6.138;2023-07-13T08:18:55;28.50;67.20
37646;DHT22;23489;49.600;6.138;2023-07-13T08:21:20;30.60;64.60
37646;DHT22;23489;49.600;6.138;2023-07-13T08:23:47;32.40;61.10
37646;DHT22;23489;49.600;6.138;2023-07-13T08:26:12;29.80;63.50
37646;DHT22;23489;49.600;6.138;2023-07-13T08:28:38;29.10;65.10
37646;DHT22;23489;49.600;6.138;2023-07-13T08:31:04;27.30;68.60
37646;DHT22;23489;49.600;6.138;2023-07-13T08:33:30;26.60;69.80
37646;DHT22;23489;49.600;6.138;2023-07-13T08:35:56;27.10;70.10
37646;DHT22;23489;49.600;6.138;2023-07-13T08:38:22;26.40;70.70
37646;DHT22;23489;49.600;6.138;2023-07-13T08:40:51;26.30;71.40
37646;DHT22;23489;49.600;6.138;2023-07-13T08:43:28;27.80;69.70
37646;DHT22;23489;49.600;6.138;2023-07-13T08:46:45;29.60;66.10
37646;DHT22;23489;49.600;6.138;2023-07-13T08:49:16;30.00;65.50
37646;DHT22;23489;49.600;6.138;2023-07-13T08:54:55;31.30;61.50
37646;DHT22;23489;49.600;6.138;2023-07-13T08:57:25;32.20;59.40
37646;DHT22;23489;49.600;6.138;2023-07-13T09:03:25;31.60;60.90
37646;DHT22;23489;49.600;6.138;2023-07-13T09:05:54;30.20;60.80
37646;DHT22;23489;49.600;6.138;2023-07-13T09:11:01;31.40;58.70
37646;DHT22;23489;49.600;6.138;2023-07-13T09:22:04;30.00;60.90
37646;DHT22;23489;49.600;6.138;2023-07-13T09:24:36;30.00;59.30
37646;DHT22;23489;49.600;6.138;2023-07-13T09:27:02;29.10;59.80
37646;DHT22;23489;49.600;6.138;2023-07-13T09:29:30;28.40;61.40
37646;DHT22;23489;49.600;6.138;2023-07-13T09:31:58;29.10;60.30
37646;DHT22;23489;49.600;6.138;2023-07-13T09:34:26;31.00;58.60
37646;DHT22;23489;49.600;6.138;2023-07-13T09:36:52;32.90;56.20
37646;DHT22;23489;49.600;6.138;2023-07-13T09:39:24;33.80;54.70
37646;DHT22;23489;49.600;6.138;2023-07-13T09:41:52;32.40;54.90
37646;DHT22;23489;49.600;6.138;2023-07-13T09:46:56;31.30;55.30
37646;DHT22;23489;49.600;6.138;2023-07-13T09:49:35;32.10;55.40
37646;DHT22;23489;49.600;6.138;2023-07-13T09:52:05;31.00;55.50
37646;DHT22;23489;49.600;6.138;2023-07-13T09:59:27;29.00;57.60
37646;DHT22;23489;49.600;6.138;2023-07-13T10:01:54;28.10;60.80
37646;DHT22;23489;49.600;6.138;2023-07-13T10:04:26;28.30;59.60
37646;DHT22;23489;49.600;6.138;2023-07-13T10:07:08;27.70;60.80
37646;DHT22;23489;49.600;6.138;2023-07-13T10:09:34;28.80;58.20
37646;DHT22;23489;49.600;6.138;2023-07-13T10:12:00;29.70;57.40
37646;DHT22;23489;49.600;6.138;2023-07-13T10:14:27;29.30;57.90
37646;DHT22;23489;49.600;6.138;2023-07-13T10:16:58;29.30;58.10
37646;DHT22;23489;49.600;6.138;2023-07-13T10:19:31;30.90;55.90
37646;DHT22;23489;49.600;6.138;2023-07-13T10:22:27;32.00;54.80
37646;DHT22;23489;49.600;6.138;2023-07-13T10:24:55;32.10;54.60
37646;DHT22;23489;49.600;6.138;2023-07-13T10:27:58;31.90;54.00
37646;DHT22;23489;49.600;6.138;2023-07-13T10:30:30;32.50;53.00
37646;DHT22;23489;49.600;6.138;2023-07-13T10:33:00;29.30;57.00
37646;DHT22;23489;49.600;6.138;2023-07-13T10:35:30;28.50;58.10
37646;DHT22;23489;49.600;6.138;2023-07-13T10:40:56;30.50;54.70
37646;DHT22;23489;49.600;6.138;2023-07-13T10:43:33;30.90;54.50
37646;DHT22;23489;49.600;6.138;2023-07-13T10:46:04;30.50;54.40
37646;DHT22;23489;49.600;6.138;2023-07-13T10:48:31;30.00;54.80
37646;DHT22;23489;49.600;6.138;2023-07-13T10:51:00;30.20;54.60
37646;DHT22;23489;49.600;6.138;2023-07-13T10:53:31;29.80;54.90
37646;DHT22;23489;49.600;6.138;2023-07-13T10:56:05;29.30;55.00
37646;DHT22;23489;49.600;6.138;2023-07-13T10:59:09;30.50;54.20
37646;DHT22;23489;49.600;6.138;2023-07-13T11:01:58;30.80;53.50
37646;DHT22;23489;49.600;6.138;2023-07-13T11:04:45;30.80;53.10
37646;DHT22;23489;49.600;6.138;2023-07-13T11:07:26;29.60;54.30
37646;DHT22;23489;49.600;6.138;2023-07-13T11:09:53;28.80;55.00
37646;DHT22;23489;49.600;6.138;2023-07-13T11:27:33;24.90;63.60
37646;DHT22;23489;49.600;6.138;2023-07-13T11:32:45;24.40;65.00
37646;DHT22;23489;49.600;6.138;2023-07-13T11:35:16;24.30;64.90
37646;DHT22;23489;49.600;6.138;2023-07-13T11:37:44;24.50;64.40
37646;DHT22;23489;49.600;6.138;2023-07-13T11:40:14;24.60;64.30
37646;DHT22;23489;49.600;6.138;2023-07-13T11:42:40;24.60;65.00
37646;DHT22;23489;49.600;6.138;2023-07-13T11:45:11;24.50;65.50
37646;DHT22;23489;49.600;6.138;2023-07-13T11:47:42;25.10;65.10
37646;DHT22;23489;49.600;6.138;2023-07-13T11:50:21;25.40;63.80
37646;DHT22;23489;49.600;6.138;2023-07-13T11:52:47;24.70;65.00
37646;DHT22;23489;49.600;6.138;2023-07-13T11:55:14;25.30;64.80
37646;DHT22;23489;49.600;6.138;2023-07-13T11:57:45;25.10;64.60
37646;DHT22;23489;49.600;6.138;2023-07-13T12:00:14;25.30;64.10
37646;DHT22;23489;49.600;6.138;2023-07-13T12:02:42;25.20;64.30
37646;DHT22;23489;49.600;6.138;2023-07-13T12:05:13;25.40;64.00
37646;DHT22;23489;49.600;6.138;2023-07-13T12:07:39;25.90;63.40
37646;DHT22;23489;49.600;6.138;2023-07-13T12:12:35;26.30;62.40
37646;DHT22;23489;49.600;6.138;2023-07-13T12:15:05;26.20;62.70
37646;DHT22;23489;49.600;6.138;2023-07-13T12:17:30;25.70;63.60
37646;DHT22;23489;49.600;6.138;2023-07-13T12:19:56;25.70;64.00
37646;DHT22;23489;49.600;6.138;2023-07-13T12:22:22;26.20;62.80
37646;DHT22;23489;49.600;6.138;2023-07-13T12:24:48;26.20;62.70
37646;DHT22;23489;49.600;6.138;2023-07-13T12:30:00;25.40;63.80
37646;DHT22;23489;49.600;6.138;2023-07-13T12:33:00;25.50;64.10
37646;DHT22;23489;49.600;6.138;2023-07-13T12:35:26;25.50;63.50
37646;DHT22;23489;49.600;6.138;2023-07-13T12:37:56;24.80;64.60
37646;DHT22;23489;49.600;6.138;2023-07-13T12:40:35;24.40;66.30
37646;DHT22;23489;49.600;6.138;2023-07-13T12:44:08;24.50;67.50
37646;DHT22;23489;49.600;6.138;2023-07-13T12:46:35;23.20;71.40
37646;DHT22;23489;49.600;6.138;2023-07-13T12:49:00;22.60;73.90
37646;DHT22;23489;49.600;6.138;2023-07-13T12:51:26;22.50;74.10
37646;DHT22;23489;49.600;6.138;2023-07-13T12:54:05;22.60;73.90
37646;DHT22;23489;49.600;6.138;2023-07-13T12:56:31;22.70;73.80
37646;DHT22;23489;49.600;6.138;2023-07-13T12:58:59;23.10;73.10
37646;DHT22;23489;49.600;6.138;2023-07-13T13:01:29;23.10;73.00
37646;DHT22;23489;49.600;6.138;2023-07-13T13:04:00;23.20;72.90
37646;DHT22;23489;49.600;6.138;2023-07-13T13:06:27;22.90;73.50
37646;DHT22;23489;49.600;6.138;2023-07-13T13:08:54;22.90;73.60
37646;DHT22;23489;49.600;6.138;2023-07-13T13:11:21;22.80;73.60
37646;DHT22;23489;49.600;6.138;2023-07-13T13:13:48;23.10;73.10
37646;DHT22;23489;49.600;6.138;2023-07-13T13:16:16;23.10;73.40
37646;DHT22;23489;49.600;6.138;2023-07-13T13:18:43;23.40;73.60
37646;DHT22;23489;49.600;6.138;2023-07-13T13:21:09;24.00;72.90
37646;DHT22;23489;49.600;6.138;2023-07-13T13:23:35;24.10;72.40
37646;DHT22;23489;49.600;6.138;2023-07-13T13:26:00;24.40;71.70
37646;DHT22;23489;49.600;6.138;2023-07-13T13:28:27;24.80;70.60
37646;DHT22;23489;49.600;6.138;2023-07-13T13:30:52;25.20;70.40
37646;DHT22;23489;49.600;6.138;2023-07-13T13:33:19;25.30;69.90
37646;DHT22;23489;49.600;6.138;2023-07-13T13:35:45;25.60;69.30
37646;DHT22;23489;49.600;6.138;2023-07-13T13:38:15;25.80;68.60
37646;DHT22;23489;49.600;6.138;2023-07-13T13:40:41;25.60;68.40
37646;DHT22;23489;49.600;6.138;2023-07-13T13:43:17;25.00;69.30
37646;DHT22;23489;49.600;6.138;2023-07-13T13:46:20;25.20;69.70
37646;DHT22;23489;49.600;6.138;2023-07-13T13:48:47;25.00;69.10
37646;DHT22;23489;49.600;6.138;2023-07-13T13:51:14;25.30;68.90
37646;DHT22;23489;49.600;6.138;2023-07-13T13:53:40;25.60;68.60
37646;DHT22;23489;49.600;6.138;2023-07-13T13:56:06;25.50;69.00
37646;DHT22;23489;49.600;6.138;2023-07-13T13:58:32;25.50;68.90
37646;DHT22;23489;49.600;6.138;2023-07-13T14:00:57;25.00;70.60
37646;DHT22;23489;49.600;6.138;2023-07-13T14:03:23;24.80;70.70
37646;DHT22;23489;49.600;6.138;2023-07-13T14:05:49;24.90;70.80
37646;DHT22;23489;49.600;6.138;2023-07-13T14:08:16;24.80;70.40
37646;DHT22;23489;49.600;6.138;2023-07-13T14:10:42;24.70;69.10
37646;DHT22;23489;49.600;6.138;2023-07-13T14:13:14;24.80;69.20
37646;DHT22;23489;49.600;6.138;2023-07-13T14:15:41;24.90;69.60
37646;DHT22;23489;49.600;6.138;2023-07-13T14:18:07;24.20;70.10
37646;DHT22;23489;49.600;6.138;2023-07-13T14:20:33;24.30;70.80
37646;DHT22;23489;49.600;6.138;2023-07-13T14:22:59;23.70;69.70
37646;DHT22;23489;49.600;6.138;2023-07-13T14:25:25;23.40;68.50
37646;DHT22;23489;49.600;6.138;2023-07-13T14:27:55;23.60;68.90
37646;DHT22;23489;49.600;6.138;2023-07-13T14:30:24;23.90;69.10
37646;DHT22;23489;49.600;6.138;2023-07-13T14:32:50;24.10;69.00
37646;DHT22;23489;49.600;6.138;2023-07-13T14:35:16;24.10;69.30
37646;DHT22;23489;49.600;6.138;2023-07-13T14:37:42;24.60;69.30
37646;DHT22;23489;49.600;6.138;2023-07-13T14:42:37;25.10;67.20
37646;DHT22;23489;49.600;6.138;2023-07-13T14:45:03;25.10;66.80
37646;DHT22;23489;49.600;6.138;2023-07-13T14:47:29;25.20;67.30
37646;DHT22;23489;49.600;6.138;2023-07-13T14:49:54;25.50;67.50
37646;DHT22;23489;49.600;6.138;2023-07-13T14:52:20;25.50;66.50
37646;DHT22;23489;49.600;6.138;2023-07-13T14:54:46;25.50;65.60
37646;DHT22;23489;49.600;6.138;2023-07-13T14:57:12;24.90;66.80
37646;DHT22;23489;49.600;6.138;2023-07-13T14:59:38;24.50;67.50
37646;DHT22;23489;49.600;6.138;2023-07-13T15:02:12;24.70;67.50
37646;DHT22;23489;49.600;6.138;2023-07-13T15:04:39;24.50;67.50
37646;DHT22;23489;49.600;6.138;2023-07-13T15:07:04;24.70;67.40
37646;DHT22;23489;49.600;6.138;2023-07-13T15:09:30;24.70;67.50
37646;DHT22;23489;49.600;6.138;2023-07-13T15:11:56;24.70;67.30
37646;DHT22;23489;49.600;6.138;2023-07-13T15:14:21;24.50;67.90
37646;DHT22;23489;49.600;6.138;2023-07-13T15:16:48;24.60;67.90
37646;DHT22;23489;49.600;6.138;2023-07-13T15:19:15;24.10;68.50
37646;DHT22;23489;49.600;6.138;2023-07-13T15:21:40;23.90;69.30
37646;DHT22;23489;49.600;6.138;2023-07-13T15:24:07;23.80;69.30
37646;DHT22;23489;49.600;6.138;2023-07-13T15:26:34;23.80;69.50
37646;DHT22;23489;49.600;6.138;2023-07-13T15:29:00;24.10;69.50
37646;DHT22;23489;49.600;6.138;2023-07-13T15:31:26;24.00;68.50
37646;DHT22;23489;49.600;6.138;2023-07-13T15:33:53;24.10;68.80
37646;DHT22;23489;49.600;6.138;2023-07-13T15:36:20;24.40;67.30
37646;DHT22;23489;49.600;6.138;2023-07-13T15:38:46;24.70;66.60
37646;DHT22;23489;49.600;6.138;2023-07-13T15:41:23;23.90;67.60
37646;DHT22;23489;49.600;6.138;2023-07-13T15:43:49;23.80;68.60
37646;DHT22;23489;49.600;6.138;2023-07-13T15:46:17;23.90;68.90
37646;DHT22;23489;49.600;6.138;2023-07-13T15:48:42;24.00;69.00
37646;DHT22;23489;49.600;6.138;2023-07-13T15:51:11;23.90;69.20
37646;DHT22;23489;49.600;6.138;2023-07-13T15:53:38;24.20;68.60
37646;DHT22;23489;49.600;6.138;2023-07-13T15:56:11;24.20;68.90
37646;DHT22;23489;49.600;6.138;2023-07-13T15:58:42;24.40;69.30
37646;DHT22;23489;49.600;6.138;2023-07-13T16:01:09;24.30;69.00
37646;DHT22;23489;49.600;6.138;2023-07-13T16:03:35;24.40;69.10
37646;DHT22;23489;49.600;6.138;2023-07-13T16:06:01;24.40;68.10
37646;DHT22;23489;49.600;6.138;2023-07-13T16:08:27;24.00;68.80
37646;DHT22;23489;49.600;6.138;2023-07-13T16:10:54;24.10;69.20
37646;DHT22;23489;49.600;6.138;2023-07-13T16:13:20;24.10;69.30
37646;DHT22;23489;49.600;6.138;2023-07-13T16:15:46;24.00;69.60
37646;DHT22;23489;49.600;6.138;2023-07-13T16:18:13;24.00;69.80
37646;DHT22;23489;49.600;6.138;2023-07-13T16:20:38;24.10;69.80
37646;DHT22;23489;49.600;6.138;2023-07-13T16:23:05;24.20;69.90
37646;DHT22;23489;49.600;6.138;2023-07-13T16:25:32;24.20;69.60
37646;DHT22;23489;49.600;6.138;2023-07-13T16:27:59;24.10;69.90
37646;DHT22;23489;49.600;6.138;2023-07-13T16:30:29;24.00;70.20
37646;DHT22;23489;49.600;6.138;2023-07-13T16:32:58;23.90;70.90
37646;DHT22;23489;49.600;6.138;2023-07-13T16:35:28;24.00;71.10
37646;DHT22;23489;49.600;6.138;2023-07-13T16:37:55;24.10;71.30